createdAt,value
2018-05-04T00:02:12.664Z,9.99
2018-05-04T00:04:45.174Z,9.92
2018-05-04T00:07:17.667Z,9.92
2018-05-04T00:09:51.259Z,9.84
2018-05-04T00:12:23.838Z,9.90
2018-05-04T00:14:56.412Z,9.90
2018-05-04T00:17:29.003Z,9.81
2018-05-04T00:20:02.156Z,9.64
2018-05-04T00:22:34.715Z,9.55
2018-05-04T00:25:07.255Z,9.57
2018-05-04T00:27:39.856Z,9.41
2018-05-04T00:30:12.363Z,9.47
2018-05-04T00:32:44.875Z,9.37
2018-05-04T00:35:18.031Z,9.43
2018-05-04T00:37:50.978Z,9.45
2018-05-04T00:40:23.487Z,9.37
2018-05-04T00:42:56.234Z,9.36
2018-05-04T00:45:28.731Z,9.27
2018-05-04T00:48:01.271Z,9.15
2018-05-04T00:50:33.841Z,9.02
2018-05-04T00:53:06.383Z,9.11
2018-05-04T00:55:38.900Z,9.17
2018-05-04T00:58:11.440Z,9.05
2018-05-04T01:00:43.964Z,8.91
2018-05-04T01:03:16.495Z,8.91
2018-05-04T01:05:49.004Z,9.01
2018-05-04T01:08:21.555Z,9.02
2018-05-04T01:10:54.095Z,8.98
2018-05-04T01:13:26.626Z,8.94
2018-05-04T01:15:59.145Z,8.89
2018-05-04T01:18:31.677Z,8.83
2018-05-04T01:21:04.220Z,8.80
2018-05-04T01:23:36.792Z,8.73
2018-05-04T01:26:09.314Z,8.76
2018-05-04T01:28:41.849Z,8.72
2018-05-04T01:31:14.360Z,8.70
2018-05-04T01:33:46.895Z,8.49
2018-05-04T01:36:19.407Z,8.18
2018-05-04T01:38:51.937Z,8.22
2018-05-04T01:41:24.435Z,8.25
2018-05-04T01:43:56.962Z,8.42
2018-05-04T01:46:29.473Z,8.46
2018-05-04T01:49:01.994Z,8.34
2018-05-04T01:51:35.503Z,8.40
2018-05-04T01:54:08.052Z,8.38
2018-05-04T01:56:40.565Z,8.30
2018-05-04T01:59:13.092Z,8.29
2018-05-04T02:01:45.610Z,8.28
2018-05-04T02:04:18.133Z,8.35
2018-05-04T02:06:50.724Z,8.34
2018-05-04T02:09:23.321Z,8.23
2018-05-04T02:11:55.825Z,8.19
2018-05-04T02:14:28.348Z,8.07
2018-05-04T02:17:00.859Z,8.04
2018-05-04T02:19:34.933Z,8.06
2018-05-04T02:22:07.481Z,8.00
2018-05-04T02:24:40.034Z,7.97
2018-05-04T02:27:12.579Z,7.96
2018-05-04T02:29:45.194Z,7.89
2018-05-04T02:32:17.680Z,7.84
2018-05-04T02:34:50.200Z,7.86
2018-05-04T02:37:22.698Z,7.85
2018-05-04T02:39:55.234Z,7.88
2018-05-04T02:42:27.741Z,7.91
2018-05-04T02:45:00.369Z,7.90
2018-05-04T02:47:33.301Z,7.86
2018-05-04T02:50:05.849Z,7.81
2018-05-04T02:52:38.378Z,7.74
2018-05-04T02:55:10.907Z,7.63
2018-05-04T02:57:43.411Z,7.63
2018-05-04T03:00:15.958Z,7.67
2018-05-04T03:02:48.494Z,7.63
2018-05-04T03:05:21.017Z,7.69
2018-05-04T03:07:53.548Z,7.66
2018-05-04T03:10:26.074Z,7.51
2018-05-04T03:12:58.573Z,7.41
2018-05-04T03:15:31.123Z,7.45
2018-05-04T03:18:04.111Z,7.52
2018-05-04T03:20:36.664Z,7.45
2018-05-04T03:23:09.205Z,7.47
2018-05-04T03:25:41.757Z,7.47
2018-05-04T03:28:14.298Z,7.36
2018-05-04T03:30:46.843Z,7.35
2018-05-04T03:33:19.872Z,7.32
2018-05-04T03:35:52.402Z,7.31
2018-05-04T03:38:24.910Z,7.05
2018-05-04T03:40:57.439Z,6.94
2018-05-04T03:43:29.953Z,6.89
2018-05-04T03:46:02.585Z,6.95
2018-05-04T03:48:36.024Z,7.03
2018-05-04T03:51:08.577Z,7.12
2018-05-04T03:53:41.097Z,7.17
2018-05-04T03:56:13.637Z,7.21
2018-05-04T03:58:57.964Z,7.23
2018-05-04T04:01:42.752Z,7.26
2018-05-04T04:04:15.266Z,7.22
2018-05-04T04:06:47.793Z,7.21
2018-05-04T04:09:20.305Z,7.20
2018-05-04T04:11:52.835Z,7.23
2018-05-04T04:14:25.340Z,7.28
2018-05-04T04:16:57.859Z,7.34
2018-05-04T04:19:30.381Z,7.37
2018-05-04T04:22:04.345Z,7.41
2018-05-04T04:24:37.680Z,7.47
2018-05-04T04:27:10.233Z,7.46
2018-05-04T04:29:42.773Z,7.53
2018-05-04T04:32:15.309Z,7.56
2018-05-04T04:34:47.844Z,7.60
2018-05-04T04:37:20.404Z,7.67
2018-05-04T04:39:52.928Z,8.05
2018-05-04T04:42:25.466Z,9.20
2018-05-04T04:44:57.983Z,10.77
2018-05-04T04:47:30.528Z,12.00
2018-05-04T04:50:03.473Z,13.14
2018-05-04T04:52:36.022Z,14.15
2018-05-04T04:55:08.542Z,15.21
2018-05-04T04:57:41.108Z,16.21
2018-05-04T05:00:13.708Z,17.00
2018-05-04T05:02:46.268Z,17.70
2018-05-04T05:05:18.834Z,18.17
2018-05-04T05:07:51.353Z,19.02
2018-05-04T05:10:23.910Z,19.61
2018-05-04T05:12:56.422Z,20.19
2018-05-04T05:15:28.965Z,20.38
2018-05-04T05:18:01.505Z,20.69
2018-05-04T05:20:34.155Z,21.41
2018-05-04T05:23:06.699Z,22.17
2018-05-04T05:25:39.266Z,22.66
2018-05-04T05:28:11.796Z,23.01
2018-05-04T05:30:44.338Z,23.06
2018-05-04T05:33:16.859Z,22.90
2018-05-04T05:35:49.401Z,23.08
2018-05-04T05:38:21.922Z,23.71
2018-05-04T05:40:54.455Z,24.19
2018-05-04T05:43:26.972Z,24.67
2018-05-04T05:45:59.512Z,24.66
2018-05-04T05:48:32.026Z,23.81
2018-05-04T05:51:06.069Z,22.81
2018-05-04T05:53:38.621Z,22.16
2018-05-04T05:56:11.169Z,21.64
2018-05-04T05:58:43.685Z,21.46
2018-05-04T06:01:16.263Z,21.08
2018-05-04T06:03:49.349Z,20.95
2018-05-04T06:06:21.888Z,21.01
2018-05-04T06:08:54.419Z,20.78
2018-05-04T06:11:26.940Z,19.22
2018-05-04T06:13:59.451Z,18.70
2018-05-04T06:16:31.995Z,18.37
2018-05-04T06:19:05.943Z,17.47
2018-05-04T06:21:38.509Z,17.37
2018-05-04T06:24:11.029Z,17.69
2018-05-04T06:26:43.573Z,17.46
2018-05-04T06:29:16.084Z,16.95
2018-05-04T06:31:48.625Z,16.60
2018-05-04T06:34:21.133Z,16.30
2018-05-04T06:36:53.670Z,16.20
2018-05-04T06:39:26.184Z,15.25
2018-05-04T06:41:58.729Z,14.72
2018-05-04T06:44:31.240Z,14.88
2018-05-04T06:47:06.130Z,15.99
2018-05-04T06:49:38.657Z,16.38
2018-05-04T06:52:11.220Z,15.94
2018-05-04T06:54:43.768Z,16.51
2018-05-04T06:57:16.312Z,16.60
2018-05-04T06:59:48.835Z,16.25
2018-05-04T07:02:21.377Z,16.22
2018-05-04T07:04:53.901Z,16.44
2018-05-04T07:07:26.478Z,15.92
2018-05-04T07:09:59.023Z,16.36
2018-05-04T07:12:31.561Z,16.47
2018-05-04T07:15:05.906Z,16.42
2018-05-04T07:17:38.428Z,16.49
2018-05-04T07:20:10.975Z,16.50
2018-05-04T07:22:43.536Z,16.80
2018-05-04T07:25:16.066Z,16.62
2018-05-04T07:27:48.676Z,16.84
2018-05-04T07:30:21.717Z,16.62
2018-05-04T07:32:54.277Z,16.76
2018-05-04T07:35:26.784Z,16.97
2018-05-04T07:37:59.316Z,17.20
2018-05-04T07:40:31.836Z,17.41
2018-05-04T07:43:04.443Z,17.97
2018-05-04T07:45:36.948Z,17.95
2018-05-04T07:48:09.493Z,17.82
2018-05-04T07:50:42.034Z,17.95
2018-05-04T07:53:14.591Z,17.56
2018-05-04T07:55:47.097Z,17.94
2018-05-04T07:58:19.646Z,18.29
2018-05-04T08:00:52.186Z,18.86
2018-05-04T08:03:24.739Z,18.83
2018-05-04T08:05:57.333Z,19.09
2018-05-04T08:08:29.885Z,19.38
2018-05-04T08:11:02.448Z,19.66
2018-05-04T08:13:35.021Z,18.64
2018-05-04T08:16:07.571Z,19.15
2018-05-04T08:18:40.117Z,19.61
2018-05-04T08:21:12.675Z,19.47
2018-05-04T08:23:45.200Z,19.61
2018-05-04T08:26:17.748Z,19.32
2018-05-04T08:28:50.298Z,19.19
2018-05-04T08:31:22.856Z,19.16
2018-05-04T08:33:55.398Z,19.49
2018-05-04T08:36:27.930Z,19.68
2018-05-04T08:39:00.436Z,20.00
2018-05-04T08:41:34.621Z,19.76
2018-05-04T08:44:07.170Z,19.60
2018-05-04T08:46:39.715Z,20.07
2018-05-04T08:49:12.241Z,20.34
2018-05-04T08:51:44.786Z,20.43
2018-05-04T08:54:17.367Z,20.49
2018-05-04T08:56:49.896Z,20.59
2018-05-04T08:59:22.441Z,20.54
2018-05-04T09:01:54.982Z,19.79
2018-05-04T09:04:27.514Z,19.53
2018-05-04T09:07:00.054Z,19.78
2018-05-04T09:09:33.156Z,20.05
2018-05-04T09:12:05.844Z,20.53
2018-05-04T09:14:38.369Z,20.87
2018-05-04T09:17:10.913Z,20.81
2018-05-04T09:19:43.461Z,20.97
2018-05-04T09:22:16.025Z,21.13
2018-05-04T09:24:48.544Z,21.21
2018-05-04T09:27:21.122Z,20.85
2018-05-04T09:29:53.636Z,21.29
2018-05-04T09:32:26.191Z,21.28
2018-05-04T09:34:58.715Z,21.01
2018-05-04T09:37:31.256Z,21.03
2018-05-04T09:40:04.783Z,21.36
2018-05-04T09:42:37.353Z,21.37
2018-05-04T09:45:09.891Z,21.28
2018-05-04T09:47:42.447Z,21.20
2018-05-04T09:50:14.974Z,20.85
2018-05-04T09:52:47.531Z,20.46
2018-05-04T09:55:20.049Z,20.33
2018-05-04T09:57:52.608Z,20.42
2018-05-04T10:00:25.132Z,20.49
2018-05-04T10:02:57.795Z,20.85
2018-05-04T10:05:30.337Z,21.14
2018-05-04T10:08:02.897Z,21.10
2018-05-04T10:10:35.431Z,21.14
2018-05-04T10:13:07.988Z,21.22
2018-05-04T10:15:40.529Z,21.47
2018-05-04T10:18:13.064Z,21.55
2018-05-04T10:20:45.588Z,21.59
2018-05-04T10:23:18.150Z,21.98
2018-05-04T10:25:50.858Z,21.89
2018-05-04T10:28:23.442Z,22.02
2018-05-04T10:30:56.027Z,21.71
2018-05-04T10:33:28.524Z,21.47
2018-05-04T10:36:01.031Z,21.44
2018-05-04T10:38:34.177Z,21.29
2018-05-04T10:41:06.633Z,21.06
2018-05-04T10:43:39.185Z,21.20
2018-05-04T10:46:11.724Z,21.47
2018-05-04T10:48:44.258Z,21.65
2018-05-04T10:51:16.765Z,21.82
2018-05-04T10:53:49.347Z,22.25
2018-05-04T10:56:21.868Z,22.10
2018-05-04T10:58:54.395Z,21.93
2018-05-04T11:01:26.929Z,21.44
2018-05-04T11:03:59.461Z,21.62
2018-05-04T11:06:31.994Z,21.78
2018-05-04T11:09:05.419Z,21.90
2018-05-04T11:11:37.950Z,21.73
2018-05-04T11:14:10.499Z,21.48
2018-05-04T11:16:43.459Z,21.38
2018-05-04T11:19:15.987Z,21.63
2018-05-04T11:21:48.532Z,21.56
2018-05-04T11:24:21.385Z,21.53
2018-05-04T11:26:53.893Z,21.38
2018-05-04T11:29:26.428Z,21.51
2018-05-04T11:31:58.940Z,21.33
2018-05-04T11:34:31.468Z,21.21
2018-05-04T11:37:04.286Z,21.14
2018-05-04T11:39:36.928Z,21.44
2018-05-04T11:42:09.519Z,21.77
2018-05-04T11:44:42.593Z,22.06
2018-05-04T11:47:15.396Z,22.25
2018-05-04T11:49:47.935Z,22.42
2018-05-04T11:52:20.437Z,21.65
2018-05-04T11:54:52.976Z,21.00
2018-05-04T11:57:25.507Z,21.33
2018-05-04T11:59:58.035Z,21.66
2018-05-04T12:02:30.588Z,22.00
2018-05-04T12:05:04.647Z,22.02
2018-05-04T12:07:37.357Z,21.71
2018-05-04T12:10:09.912Z,21.60
2018-05-04T12:12:42.466Z,21.75
2018-05-04T12:15:15.001Z,22.17
2018-05-04T12:17:47.508Z,22.59
2018-05-04T12:20:20.032Z,22.37
2018-05-04T12:22:52.601Z,21.87
2018-05-04T12:25:25.130Z,22.43
2018-05-04T12:27:57.702Z,23.10
2018-05-04T12:30:30.292Z,23.76
2018-05-04T12:33:03.136Z,23.78
2018-05-04T12:35:35.984Z,23.34
2018-05-04T12:38:08.538Z,23.03
2018-05-04T12:40:41.061Z,23.09
2018-05-04T12:43:13.608Z,23.12
2018-05-04T12:45:46.568Z,23.25
2018-05-04T12:48:19.095Z,22.69
2018-05-04T12:50:51.604Z,22.22
2018-05-04T12:53:24.166Z,22.11
2018-05-04T12:55:56.688Z,21.95
2018-05-04T12:58:29.212Z,22.61
2018-05-04T13:01:01.714Z,23.24
2018-05-04T13:03:34.468Z,23.40
2018-05-04T13:06:06.967Z,23.48
2018-05-04T13:08:40.075Z,22.90
2018-05-04T13:11:12.666Z,22.20
2018-05-04T13:13:45.514Z,22.00
2018-05-04T13:16:18.226Z,22.58
2018-05-04T13:18:50.780Z,22.82
2018-05-04T13:21:23.277Z,23.11
2018-05-04T13:23:55.818Z,22.85
2018-05-04T13:26:28.327Z,23.27
2018-05-04T13:29:01.496Z,24.49
2018-05-04T13:31:34.225Z,25.25
2018-05-04T13:34:07.026Z,25.66
2018-05-04T13:36:39.535Z,25.74
2018-05-04T13:39:12.079Z,25.56
2018-05-04T13:41:44.671Z,25.66
2018-05-04T13:44:17.197Z,24.84
2018-05-04T13:46:50.204Z,24.80
2018-05-04T13:49:22.865Z,24.82
2018-05-04T13:51:55.320Z,22.52
2018-05-04T13:54:27.854Z,22.39
2018-05-04T13:57:00.367Z,22.88
2018-05-04T13:59:33.429Z,23.24
2018-05-04T14:02:06.371Z,23.57
2018-05-04T14:04:38.922Z,23.67
2018-05-04T14:07:11.457Z,23.51
2018-05-04T14:09:44.017Z,23.61
2018-05-04T14:12:16.540Z,23.73
2018-05-04T14:14:49.086Z,23.23
2018-05-04T14:17:21.592Z,22.93
2018-05-04T14:19:54.238Z,22.68
2018-05-04T14:22:27.073Z,22.60
2018-05-04T14:24:59.608Z,22.09
2018-05-04T14:27:32.113Z,22.22
2018-05-04T14:30:05.576Z,22.30
2018-05-04T14:32:38.343Z,21.70
2018-05-04T14:35:10.870Z,21.89
2018-05-04T14:37:44.149Z,21.87
2018-05-04T14:40:16.680Z,21.56
2018-05-04T14:42:49.270Z,21.78
2018-05-04T14:45:21.755Z,21.61
2018-05-04T14:47:54.247Z,21.84
2018-05-04T14:50:26.756Z,22.00
2018-05-04T14:52:59.271Z,22.35
2018-05-04T14:55:31.784Z,22.57
2018-05-04T14:58:04.415Z,22.53
2018-05-04T15:00:37.304Z,22.63
2018-05-04T15:03:09.849Z,22.82
2018-05-04T15:05:43.382Z,22.02
2018-05-04T15:08:16.234Z,21.60
2018-05-04T15:10:49.179Z,21.98
2018-05-04T15:13:21.723Z,22.20
2018-05-04T15:15:54.597Z,22.36
2018-05-04T15:18:27.081Z,22.22
2018-05-04T15:20:59.606Z,22.02
2018-05-04T15:23:32.113Z,21.75
2018-05-04T15:26:04.638Z,21.96
2018-05-04T15:28:37.143Z,22.12
2018-05-04T15:31:09.895Z,22.22
2018-05-04T15:33:42.394Z,22.42
2018-05-04T15:36:14.952Z,22.22
2018-05-04T15:38:47.474Z,22.08
2018-05-04T15:41:20.033Z,21.81
2018-05-04T15:43:52.730Z,21.96
2018-05-04T15:46:25.250Z,21.29
2018-05-04T15:49:03.457Z,21.74
2018-05-04T15:51:41.711Z,22.03
2018-05-04T15:54:14.248Z,21.97
2018-05-04T15:56:47.119Z,22.13
2018-05-04T15:59:19.620Z,22.54
2018-05-04T16:01:52.129Z,22.05
2018-05-04T16:04:24.657Z,22.13
2018-05-04T16:13:46.690Z,20.85
2018-05-04T16:16:19.208Z,20.73
2018-05-04T16:18:51.710Z,21.05
2018-05-04T16:21:24.227Z,21.27
2018-05-04T16:23:56.752Z,21.40
2018-05-04T16:26:29.268Z,21.25
2018-05-04T16:29:01.933Z,20.85
2018-05-04T16:31:34.456Z,20.81
2018-05-04T16:34:06.953Z,21.10
2018-05-04T16:36:39.470Z,21.37
2018-05-04T16:39:11.964Z,21.46
2018-05-04T16:41:44.565Z,21.59
2018-05-04T16:44:17.620Z,21.58
2018-05-04T16:46:55.806Z,21.32
2018-05-04T16:49:28.639Z,21.38
2018-05-04T16:52:01.347Z,21.39
2018-05-04T16:54:33.876Z,21.38
2018-05-04T16:57:06.387Z,21.44
2018-05-04T16:59:38.899Z,21.45
2018-05-04T17:02:11.397Z,21.45
2018-05-04T17:04:43.920Z,21.47
2018-05-04T17:07:16.911Z,21.50
2018-05-04T17:09:49.444Z,21.43
2018-05-04T17:12:21.948Z,21.23
2018-05-04T17:14:54.465Z,21.20
2018-05-04T17:17:26.968Z,21.43
2018-05-04T17:19:59.487Z,21.66
2018-05-04T17:22:31.985Z,21.83
2018-05-04T17:25:04.496Z,22.00
2018-05-04T17:27:36.997Z,22.11
2018-05-04T17:30:09.516Z,22.38
2018-05-04T17:32:42.015Z,22.63
2018-05-04T17:35:14.539Z,22.87
2018-05-04T17:37:47.853Z,23.00
2018-05-04T17:40:20.384Z,23.22
2018-05-04T17:42:53.169Z,23.14
2018-05-04T17:45:25.910Z,22.93
2018-05-04T17:47:58.853Z,22.77
2018-05-04T17:50:32.458Z,22.56
2018-05-04T17:53:05.146Z,22.29
2018-05-04T17:55:37.738Z,21.92
2018-05-04T17:58:10.415Z,21.57
2018-05-04T18:00:43.077Z,21.23
2018-05-04T18:03:15.739Z,20.86
2018-05-04T18:05:48.653Z,20.62
2018-05-04T18:08:21.184Z,20.42
2018-05-04T18:10:53.712Z,20.09
2018-05-04T18:13:26.233Z,19.96
2018-05-04T18:15:58.802Z,19.80
2018-05-04T18:18:31.342Z,19.68
2018-05-04T18:21:03.882Z,19.54
2018-05-04T18:23:36.473Z,19.45
2018-05-04T18:26:09.076Z,19.32
2018-05-04T18:28:41.569Z,19.23
2018-05-04T18:31:14.079Z,19.10
2018-05-04T18:33:46.639Z,19.02
2018-05-04T18:36:19.154Z,18.89
2018-05-04T18:38:51.655Z,18.81
2018-05-04T18:41:24.186Z,18.74
2018-05-04T18:43:56.727Z,18.65
2018-05-04T18:46:29.237Z,18.58
2018-05-04T18:49:01.741Z,18.50
2018-05-04T18:51:34.255Z,18.34
2018-05-04T18:54:06.758Z,18.19
2018-05-04T18:56:39.275Z,18.11
2018-05-04T18:59:11.776Z,17.98
2018-05-04T19:01:44.316Z,17.88
2018-05-04T19:04:17.642Z,17.78
2018-05-04T19:06:50.160Z,17.65
2018-05-04T19:09:22.654Z,17.49
2018-05-04T19:11:55.174Z,17.45
2018-05-04T19:14:27.671Z,17.25
2018-05-04T19:17:00.185Z,17.08
2018-05-04T19:19:32.684Z,16.96
2018-05-04T19:22:05.199Z,16.73
2018-05-04T19:24:37.708Z,16.46
2018-05-04T19:27:10.231Z,16.41
2018-05-04T19:29:42.724Z,16.36
2018-05-04T19:32:15.266Z,16.21
2018-05-04T19:34:48.394Z,16.09
2018-05-04T19:37:20.843Z,15.96
2018-05-04T19:39:53.390Z,15.83
2018-05-04T19:42:25.917Z,15.74
2018-05-04T19:44:58.420Z,15.77
2018-05-04T19:47:30.935Z,15.82
2018-05-04T19:50:03.446Z,15.82
2018-05-04T19:52:36.130Z,15.91
2018-05-04T19:55:08.701Z,15.88
2018-05-04T19:57:41.239Z,15.84
2018-05-04T20:00:13.885Z,15.77
2018-05-04T20:02:46.911Z,15.77
2018-05-04T20:05:19.411Z,15.75
2018-05-04T20:07:51.923Z,15.77
2018-05-04T20:10:24.525Z,15.77
2018-05-04T20:12:57.039Z,15.77
2018-05-04T20:15:29.548Z,15.72
2018-05-04T20:18:02.049Z,15.68
2018-05-04T20:20:34.591Z,15.60
2018-05-04T20:23:07.274Z,15.53
2018-05-04T20:25:39.825Z,15.53
2018-05-04T20:28:12.314Z,15.49
2018-05-04T20:30:44.884Z,15.43
2018-05-04T20:33:18.132Z,15.35
2018-05-04T20:35:50.663Z,15.28
2018-05-04T20:38:23.165Z,15.21
2018-05-04T20:43:34.568Z,15.12
2018-05-04T20:46:07.084Z,15.08
2018-05-04T20:48:39.582Z,14.98
2018-05-04T20:51:12.102Z,14.92
2018-05-04T20:53:44.625Z,14.83
2018-05-04T20:56:17.896Z,14.76
2018-05-04T20:58:50.456Z,14.76
2018-05-04T21:01:22.934Z,14.70
2018-05-04T21:03:55.428Z,14.65
2018-05-04T21:06:27.944Z,14.61
2018-05-04T21:09:00.443Z,14.53
2018-05-04T21:11:32.956Z,14.44
2018-05-04T21:14:05.513Z,14.38
2018-05-04T21:16:37.992Z,14.33
2018-05-04T21:19:10.485Z,14.20
2018-05-04T21:21:43.016Z,14.08
2018-05-04T21:24:16.141Z,13.99
2018-05-04T21:26:48.664Z,13.96
2018-05-04T21:29:21.193Z,13.91
2018-05-04T21:31:53.704Z,13.83
2018-05-04T21:34:26.201Z,13.79
2018-05-04T21:36:58.800Z,13.72
2018-05-04T21:39:31.292Z,13.61
2018-05-04T21:42:03.812Z,13.49
2018-05-04T21:44:36.303Z,13.42
2018-05-04T21:47:08.820Z,13.32
2018-05-04T21:49:41.321Z,13.25
2018-05-04T21:52:13.839Z,13.18
2018-05-04T21:54:47.435Z,13.12
2018-05-04T21:57:19.948Z,13.06
2018-05-04T21:59:52.446Z,12.97
2018-05-04T22:02:25.037Z,12.89
2018-05-04T22:04:57.531Z,12.85
2018-05-04T22:07:30.047Z,12.77
2018-05-04T22:10:02.555Z,12.71
2018-05-04T22:12:35.068Z,12.59
2018-05-04T22:15:07.562Z,12.51
2018-05-04T22:17:40.077Z,12.39
2018-05-04T22:20:12.581Z,12.16
2018-05-04T22:22:45.098Z,11.78
2018-05-04T22:25:18.137Z,12.23
2018-05-04T22:27:50.715Z,12.22
2018-05-04T22:30:23.212Z,12.20
2018-05-04T22:32:55.790Z,12.17
2018-05-04T22:35:28.287Z,12.05
2018-05-04T22:38:00.812Z,11.99
2018-05-04T22:40:33.301Z,11.92
2018-05-04T22:43:05.825Z,11.90
2018-05-04T22:45:38.325Z,11.86
2018-05-04T22:48:10.839Z,11.83
2018-05-04T22:50:43.423Z,11.76
2018-05-04T22:53:16.571Z,11.70
2018-05-04T22:55:49.059Z,11.63
2018-05-04T22:58:21.605Z,11.55
2018-05-04T23:00:54.100Z,11.50
2018-05-04T23:03:26.619Z,11.47
2018-05-04T23:05:59.120Z,11.42
2018-05-04T23:08:31.920Z,11.27
2018-05-04T23:11:04.414Z,11.22
2018-05-04T23:13:36.936Z,11.18
2018-05-04T23:16:09.433Z,11.15
2018-05-04T23:18:41.950Z,11.07
2018-05-04T23:21:14.440Z,11.02
2018-05-04T23:23:47.546Z,10.96
2018-05-04T23:26:20.047Z,10.92
2018-05-04T23:28:52.591Z,10.90
2018-05-04T23:31:25.105Z,10.84
2018-05-04T23:33:57.659Z,10.79
2018-05-04T23:36:30.182Z,10.73
2018-05-04T23:39:02.685Z,10.65
2018-05-04T23:41:35.217Z,10.57
2018-05-04T23:44:07.706Z,10.53
2018-05-04T23:46:40.215Z,10.44
2018-05-04T23:49:12.695Z,10.35
2018-05-04T23:51:45.213Z,10.23
2018-05-04T23:54:18.652Z,10.17
2018-05-04T23:56:51.195Z,10.13
2018-05-04T23:59:23.701Z,10.11
